BTCO2: Turkey Creek nr Bison, OK

Data processed at Wed May 22 2019 23:30


All information presented herein is the property of the government of the United States of America and may be revised or deleted at any time without prior notice.
Dissemination of this information without the expressed written consent of the Public Affairs Office, Tulsa District U.S. Army Corps of Engineers is strictly prohibited.
These data are gathered electronically and, as presented, have not undergone any form of quality control. These data are not guaranteed to be valid or correct.
Go to home page.
Go to station list.
Go to home page.

Upstream stations:

Downstream station:
Previous Day
Next Day
Current Day
    
SHEF ID:       BTCO2     Turkey Creek nr Bison, OK
STATION TYPE:  

               PRECIP     STAGE  STAGE(2)  RIV-FLOW   VOLTAGE  BAT-LOAD
                   in        ft        ft       cfs      volt      volt
              Ccp-Rev   Ccp-Rev   Ccp-Rev   Ccp-Rev   Ccp-Rev   Ccp-Rev
(US/Central)
05/22 00:00      0.00     25.52      ----      6085     12.89     12.65
05/22 01:00      0.00     25.37      ----      6012     12.89     12.65
05/22 02:00      0.00     25.17      ----      5915     12.81     12.65
05/22 03:00      0.00     25.00      ----      5833     12.81     12.65
05/22 04:00      0.00     24.82      ----      5747     12.81     12.65
05/22 05:00      0.00     24.63      ----      5656     12.81     12.65
05/22 06:00      0.00     24.42      ----      5557     12.81     12.57
05/22 07:00      0.00     24.20      ----      5454     12.81     12.57
05/22 08:00      0.00     23.94      ----      5332     12.97     12.65
05/22 09:00      0.00     23.70      ----      5221     13.21     12.89
05/22 10:00      0.00     23.42      ----      5093     13.29     13.05
05/22 11:00      0.00     23.11      ----      4952     13.53     13.21
05/22 12:00      0.00     22.74      ----      4786     13.37     13.21
05/22 13:00      0.00     22.29      ----      4587     13.92     12.97
05/22 14:00      0.00     21.75      ----      4352     13.68     12.97
05/22 15:00      0.01     21.15      ----      4097     14.00     12.89
05/22 16:00      0.00     20.55      ----      3848     13.68     12.81
05/22 17:00      0.00     19.97      ----      3613     13.60     12.81
05/22 18:00      0.00     19.44      ----      3402     13.68     12.81
05/22 19:00      0.05     19.04      ----      3247     13.05     12.73
05/22 20:00      0.03     18.71      ----      3121     12.89     12.73
05/22 21:00      0.00     18.49      ----      3038     12.89     12.73
05/22 22:00      0.02     18.33      ----      2978     12.81     12.65
05/22 23:00      0.00     18.18      ----      2922     12.81     12.65